createdAt,value
2023-05-04T00:01:23.181Z,13.29
2023-05-04T00:03:50.416Z,13.44
2023-05-04T00:06:17.430Z,13.59
2023-05-04T00:08:44.427Z,13.07
2023-05-04T00:11:11.637Z,13.12
2023-05-04T00:13:38.602Z,12.98
2023-05-04T00:16:05.635Z,12.98
2023-05-04T00:18:32.390Z,13.57
2023-05-04T00:20:59.350Z,13.36
2023-05-04T00:23:26.466Z,13.43
2023-05-04T00:25:53.222Z,13.49
2023-05-04T00:28:20.687Z,13.11
2023-05-04T00:30:47.694Z,13.50
2023-05-04T00:33:14.426Z,13.21
2023-05-04T00:35:41.486Z,13.17
2023-05-04T00:38:08.676Z,13.21
2023-05-04T00:40:36.048Z,13.15
2023-05-04T00:43:03.024Z,13.12
2023-05-04T00:45:30.472Z,12.90
2023-05-04T00:47:57.158Z,12.98
2023-05-04T00:50:25.864Z,13.01
2023-05-04T00:52:55.593Z,12.91
2023-05-04T00:55:22.755Z,13.12
2023-05-04T00:57:51.076Z,13.06
2023-05-04T01:00:18.821Z,12.92
2023-05-04T01:02:46.116Z,13.04
2023-05-04T01:05:14.265Z,12.98
2023-05-04T01:08:03.092Z,12.68
2023-05-04T01:10:47.685Z,12.62
2023-05-04T01:13:17.194Z,12.84
2023-05-04T01:15:44.834Z,12.82
2023-05-04T01:18:11.695Z,12.95
2023-05-04T01:20:38.968Z,13.37
2023-05-04T01:23:06.092Z,13.25
2023-05-04T01:26:05.196Z,13.19
2023-05-04T01:28:44.009Z,13.35
2023-05-04T01:31:14.456Z,12.97
2023-05-04T01:33:41.702Z,12.89
2023-05-04T01:36:08.863Z,12.99
2023-05-04T01:38:36.102Z,13.25
2023-05-04T01:41:02.992Z,13.28
2023-05-04T01:43:29.783Z,13.06
2023-05-04T01:45:56.725Z,13.12
2023-05-04T01:48:23.564Z,13.17
2023-05-04T01:50:50.437Z,13.58
2023-05-04T01:53:17.569Z,12.96
2023-05-04T01:55:47.289Z,13.00
2023-05-04T01:58:14.171Z,13.10
2023-05-04T02:00:41.157Z,13.01
2023-05-04T02:03:09.600Z,12.75
2023-05-04T02:05:36.604Z,12.82
2023-05-04T02:08:03.613Z,12.87
2023-05-04T02:10:30.604Z,13.21
2023-05-04T02:12:58.208Z,12.75
2023-05-04T02:15:24.996Z,12.82
2023-05-04T02:17:51.898Z,12.75
2023-05-04T02:20:19.212Z,12.58
2023-05-04T02:22:46.364Z,12.81
2023-05-04T02:25:13.068Z,12.83
2023-05-04T02:27:39.843Z,12.65
2023-05-04T02:30:07.458Z,12.79
2023-05-04T02:32:34.479Z,12.52
2023-05-04T02:35:01.991Z,12.67
2023-05-04T02:37:29.089Z,12.47
2023-05-04T02:39:56.073Z,12.41
2023-05-04T02:42:23.168Z,12.67
2023-05-04T02:44:50.583Z,13.21
2023-05-04T02:47:17.464Z,13.09
2023-05-04T02:49:44.302Z,13.07
2023-05-04T02:52:11.071Z,12.88
2023-05-04T02:54:38.627Z,12.57
2023-05-04T02:57:06.554Z,13.16
2023-05-04T02:59:34.250Z,13.54
2023-05-04T03:02:01.149Z,13.26
2023-05-04T03:04:27.974Z,13.31
2023-05-04T03:06:55.052Z,12.92
2023-05-04T03:09:21.780Z,13.30
2023-05-04T03:11:48.483Z,12.74
2023-05-04T03:14:15.468Z,12.98
2023-05-04T03:16:42.390Z,12.76
2023-05-04T03:19:09.160Z,12.81
2023-05-04T03:21:36.296Z,12.76
2023-05-04T03:24:04.442Z,12.97
2023-05-04T03:26:31.311Z,12.88
2023-05-04T03:28:58.340Z,12.52
2023-05-04T03:31:25.433Z,12.65
2023-05-04T03:33:52.208Z,12.85
2023-05-04T03:36:19.267Z,12.87
2023-05-04T03:38:45.900Z,12.82
2023-05-04T03:41:13.032Z,12.86
2023-05-04T03:43:40.183Z,12.83
2023-05-04T03:46:07.068Z,12.66
2023-05-04T03:48:33.833Z,12.61
2023-05-04T03:51:00.823Z,12.75
2023-05-04T03:53:27.642Z,12.86
2023-05-04T03:55:56.448Z,12.71
2023-05-04T03:58:23.347Z,12.77
2023-05-04T04:00:50.242Z,13.09
2023-05-04T04:03:17.255Z,13.09
2023-05-04T04:05:44.479Z,13.23
2023-05-04T04:08:11.179Z,13.27
2023-05-04T04:10:38.214Z,13.46
2023-05-04T04:13:05.198Z,13.03
2023-05-04T04:15:32.117Z,12.84
2023-05-04T04:17:58.909Z,13.17
2023-05-04T04:20:26.008Z,13.55
2023-05-04T04:22:52.704Z,12.95
2023-05-04T04:25:19.435Z,13.06
2023-05-04T04:27:46.227Z,13.04
2023-05-04T04:30:14.046Z,12.93
2023-05-04T04:32:40.808Z,12.74
2023-05-04T04:35:08.279Z,12.71
2023-05-04T04:37:35.145Z,12.68
2023-05-04T04:40:02.051Z,13.09
2023-05-04T04:42:29.030Z,13.18
2023-05-04T04:44:56.213Z,13.30
2023-05-04T04:47:23.089Z,14.43
2023-05-04T04:49:50.781Z,13.72
2023-05-04T04:52:18.295Z,14.66
2023-05-04T04:54:45.489Z,15.32
2023-05-04T04:57:15.074Z,15.19
2023-05-04T04:59:41.820Z,15.52
2023-05-04T05:02:11.095Z,15.14
2023-05-04T05:04:40.434Z,14.25
2023-05-04T05:07:09.029Z,14.00
2023-05-04T05:09:42.401Z,13.81
2023-05-04T05:12:09.202Z,13.34
2023-05-04T05:14:36.006Z,13.63
2023-05-04T05:17:05.840Z,13.66
2023-05-04T05:19:37.251Z,14.19
2023-05-04T05:22:04.680Z,13.94
2023-05-04T05:24:32.292Z,13.84
2023-05-04T05:26:59.396Z,13.92
2023-05-04T05:29:26.504Z,14.03
2023-05-04T05:31:53.686Z,13.97
2023-05-04T05:34:20.404Z,14.06
2023-05-04T05:36:49.180Z,14.02
2023-05-04T05:39:16.650Z,13.70
2023-05-04T05:41:44.884Z,14.40
2023-05-04T05:44:13.136Z,13.97
2023-05-04T05:46:40.487Z,14.25
2023-05-04T05:49:07.571Z,13.90
2023-05-04T05:51:34.512Z,13.20
2023-05-04T05:54:01.534Z,13.42
2023-05-04T05:56:28.339Z,13.55
2023-05-04T05:58:55.258Z,13.50
2023-05-04T06:01:22.326Z,13.42
2023-05-04T06:03:49.583Z,13.67
2023-05-04T06:06:17.334Z,13.92
2023-05-04T06:08:44.358Z,13.72
2023-05-04T06:11:12.076Z,13.25
2023-05-04T06:13:39.507Z,13.50
2023-05-04T06:16:06.615Z,13.66
2023-05-04T06:18:33.540Z,13.84
2023-05-04T06:21:01.548Z,13.88
2023-05-04T06:23:31.645Z,13.71
2023-05-04T06:25:58.734Z,13.99
2023-05-04T06:28:25.813Z,14.18
2023-05-04T06:30:52.917Z,13.92
2023-05-04T06:33:20.031Z,14.17
2023-05-04T06:35:46.802Z,14.37
2023-05-04T06:38:13.937Z,14.45
2023-05-04T06:40:46.350Z,14.98
2023-05-04T06:43:13.369Z,15.14
2023-05-04T06:45:40.529Z,15.10
2023-05-04T06:48:09.050Z,15.10
2023-05-04T06:51:09.956Z,14.72
2023-05-04T06:53:45.531Z,13.95
2023-05-04T06:56:13.268Z,14.07
2023-05-04T06:58:46.892Z,14.21
2023-05-04T07:03:57.088Z,14.02
2023-05-04T07:06:26.590Z,14.05
2023-05-04T07:08:56.373Z,14.01
2023-05-04T07:11:23.574Z,14.20
2023-05-04T07:13:53.464Z,14.65
2023-05-04T07:16:20.491Z,15.03
2023-05-04T07:18:47.675Z,15.84
2023-05-04T07:21:26.924Z,15.81
2023-05-04T07:23:55.398Z,15.21
2023-05-04T07:26:23.266Z,15.16
2023-05-04T07:28:50.653Z,14.77
2023-05-04T07:31:20.096Z,15.61
2023-05-04T07:33:47.389Z,15.18
2023-05-04T07:36:17.159Z,14.82
2023-05-04T07:38:50.049Z,15.87
2023-05-04T07:41:17.678Z,16.03
2023-05-04T07:43:44.647Z,16.02
2023-05-04T07:46:12.363Z,16.50
2023-05-04T07:48:39.310Z,16.80
2023-05-04T07:51:06.272Z,16.38
2023-05-04T07:53:33.227Z,16.27
2023-05-04T07:56:08.207Z,16.03
2023-05-04T07:58:35.128Z,16.07
2023-05-04T08:01:04.810Z,15.78
2023-05-04T08:03:32.322Z,15.90
2023-05-04T08:05:59.286Z,15.99
2023-05-04T08:08:27.890Z,15.49
2023-05-04T08:10:57.766Z,15.51
2023-05-04T08:13:29.345Z,15.80
2023-05-04T08:16:04.247Z,15.97
2023-05-04T08:18:31.247Z,16.47
2023-05-04T08:20:58.597Z,17.57
2023-05-04T08:23:25.955Z,17.88
2023-05-04T08:26:07.713Z,16.99
2023-05-04T08:28:38.011Z,17.40
2023-05-04T08:31:04.938Z,17.24
2023-05-04T08:33:32.363Z,16.67
2023-05-04T08:36:04.117Z,17.13
2023-05-04T08:38:31.419Z,17.97
2023-05-04T08:40:58.602Z,17.13
2023-05-04T08:43:25.428Z,16.92
2023-05-04T08:45:53.169Z,17.73
2023-05-04T08:48:20.292Z,17.68
2023-05-04T08:50:47.830Z,18.01
2023-05-04T08:53:21.075Z,17.84
2023-05-04T08:55:50.197Z,17.06
2023-05-04T08:58:18.984Z,17.30
2023-05-04T09:00:46.344Z,17.83
2023-05-04T09:03:17.100Z,18.63
2023-05-04T09:05:46.241Z,18.44
2023-05-04T09:08:15.934Z,18.55
2023-05-04T09:10:47.364Z,16.97
2023-05-04T09:13:14.805Z,17.53
2023-05-04T09:15:42.531Z,17.91
2023-05-04T09:18:12.324Z,18.19
2023-05-04T09:20:47.378Z,17.26
2023-05-04T09:23:15.629Z,17.92
2023-05-04T09:25:54.485Z,17.17
2023-05-04T09:28:34.380Z,17.39
2023-05-04T09:31:02.693Z,17.65
2023-05-04T09:33:29.644Z,18.26
2023-05-04T09:35:59.536Z,18.55
2023-05-04T09:38:57.146Z,18.80
2023-05-04T09:41:33.840Z,19.22
2023-05-04T09:47:06.430Z,18.12
2023-05-04T09:49:39.090Z,18.27
2023-05-04T09:55:03.841Z,17.63
2023-05-04T09:57:31.448Z,18.21
2023-05-04T09:59:58.384Z,18.41
2023-05-04T10:02:25.258Z,19.15
2023-05-04T10:04:53.265Z,19.42
2023-05-04T10:07:21.265Z,19.45
2023-05-04T10:09:49.465Z,19.66
2023-05-04T10:12:25.225Z,20.19
2023-05-04T10:14:52.697Z,20.21
2023-05-04T10:17:57.013Z,19.21
2023-05-04T10:20:51.288Z,20.45
2023-05-04T10:23:45.559Z,20.13
2023-05-04T10:26:41.586Z,20.04
2023-05-04T10:29:30.233Z,19.56
2023-05-04T10:31:57.707Z,19.65
2023-05-04T10:34:32.997Z,18.91
2023-05-04T10:37:04.312Z,18.90
2023-05-04T10:39:32.755Z,19.11
2023-05-04T10:42:06.435Z,19.52
2023-05-04T10:44:37.900Z,20.45
2023-05-04T10:47:08.537Z,20.61
2023-05-04T10:49:36.280Z,20.62
2023-05-04T10:52:16.539Z,19.72
2023-05-04T10:55:02.554Z,19.41
2023-05-04T10:57:30.410Z,19.48
2023-05-04T10:59:59.183Z,20.14
2023-05-04T11:02:28.786Z,19.57
2023-05-04T11:05:06.135Z,19.30
2023-05-04T11:07:38.360Z,18.89
2023-05-04T11:10:08.606Z,19.44
2023-05-04T11:12:37.948Z,19.24
2023-05-04T11:15:09.053Z,19.03
2023-05-04T11:17:46.152Z,18.73
2023-05-04T11:20:20.718Z,19.16
2023-05-04T11:22:53.202Z,19.27
2023-05-04T11:28:18.645Z,18.95
2023-05-04T11:30:47.708Z,18.70
2023-05-04T11:33:43.090Z,18.62
2023-05-04T11:36:13.525Z,18.93
2023-05-04T11:38:40.916Z,19.04
2023-05-04T11:41:09.196Z,18.58
2023-05-04T11:43:38.057Z,18.93
2023-05-04T11:46:08.335Z,19.13
2023-05-04T11:48:45.901Z,19.61
2023-05-04T11:51:13.463Z,19.05
2023-05-04T11:53:41.322Z,19.21
2023-05-04T11:56:16.084Z,19.58
2023-05-04T11:58:43.001Z,19.44
2023-05-04T12:01:09.835Z,19.39
2023-05-04T12:03:53.165Z,19.91
2023-05-04T12:09:23.444Z,19.74
2023-05-04T12:11:59.769Z,19.28
2023-05-04T12:14:28.643Z,19.92
2023-05-04T12:16:57.801Z,19.74
2023-05-04T12:19:24.796Z,20.14
2023-05-04T12:24:44.564Z,20.12
2023-05-04T12:27:20.891Z,20.61
2023-05-04T12:29:50.477Z,20.81
2023-05-04T12:32:20.674Z,20.42
2023-05-04T12:34:48.251Z,20.81
2023-05-04T12:37:15.879Z,20.44
2023-05-04T12:39:48.601Z,20.48
2023-05-04T12:42:16.893Z,20.67
2023-05-04T12:44:45.116Z,20.63
2023-05-04T12:47:18.938Z,20.67
2023-05-04T12:52:26.846Z,20.67
2023-05-04T12:54:55.395Z,21.03
2023-05-04T12:57:22.462Z,20.97
2023-05-04T12:59:49.609Z,21.17
2023-05-04T13:02:17.338Z,20.77
2023-05-04T13:04:47.507Z,20.50
2023-05-04T13:07:17.536Z,20.41
2023-05-04T13:09:47.410Z,19.87
2023-05-04T13:12:16.730Z,19.90
2023-05-04T13:14:43.859Z,19.85
2023-05-04T13:17:10.960Z,19.64
2023-05-04T13:19:38.050Z,19.97
2023-05-04T13:22:05.284Z,20.67
2023-05-04T13:24:32.460Z,20.03
2023-05-04T13:27:00.257Z,19.80
2023-05-04T13:29:27.331Z,20.11
2023-05-04T13:31:54.550Z,20.36
2023-05-04T13:34:21.617Z,20.27
2023-05-04T13:36:48.545Z,19.81
2023-05-04T13:39:22.305Z,20.54
2023-05-04T13:41:49.472Z,20.55
2023-05-04T13:44:16.618Z,20.19
2023-05-04T13:46:44.040Z,20.28
2023-05-04T13:49:10.952Z,20.07
2023-05-04T13:51:38.337Z,20.38
2023-05-04T13:54:05.614Z,20.14
2023-05-04T13:56:32.869Z,19.76
2023-05-04T13:58:59.958Z,19.62
2023-05-04T14:01:26.921Z,19.77
2023-05-04T14:03:54.559Z,19.80
2023-05-04T14:06:21.968Z,19.76
2023-05-04T14:08:50.032Z,19.74
2023-05-04T14:11:16.958Z,19.64
2023-05-04T14:13:43.911Z,19.42
2023-05-04T14:16:11.243Z,19.30
2023-05-04T14:18:40.857Z,19.40
2023-05-04T14:21:07.563Z,19.53
2023-05-04T14:23:34.453Z,19.46
2023-05-04T14:26:01.299Z,19.35
2023-05-04T14:28:35.021Z,19.36
2023-05-04T14:31:17.598Z,19.67
2023-05-04T14:33:54.686Z,19.04
2023-05-04T14:36:42.419Z,19.26
2023-05-04T14:39:09.347Z,19.22
2023-05-04T14:41:39.020Z,19.20
2023-05-04T14:44:05.807Z,19.49
2023-05-04T14:46:34.278Z,19.30
2023-05-04T14:49:01.923Z,19.16
2023-05-04T14:51:30.109Z,19.16
2023-05-04T14:53:59.543Z,19.31
2023-05-04T14:56:29.357Z,19.64
2023-05-04T14:58:57.440Z,19.70
2023-05-04T15:01:27.866Z,19.62
2023-05-04T15:03:56.775Z,20.02
2023-05-04T15:06:23.789Z,19.60
2023-05-04T15:08:50.538Z,19.52
2023-05-04T15:11:19.328Z,19.28
2023-05-04T15:13:46.440Z,19.38
2023-05-04T15:16:42.844Z,19.23
2023-05-04T15:19:15.725Z,19.30
2023-05-04T15:21:43.863Z,19.02
2023-05-04T15:24:10.867Z,18.57
2023-05-04T15:26:38.794Z,18.14
2023-05-04T15:29:14.604Z,18.17
2023-05-04T15:31:44.054Z,18.08
2023-05-04T15:34:18.144Z,17.74
2023-05-04T15:36:58.312Z,17.78
2023-05-04T15:39:29.789Z,17.68
2023-05-04T15:41:59.979Z,17.59
2023-05-04T15:44:28.092Z,17.38
2023-05-04T15:46:55.452Z,17.39
2023-05-04T15:49:22.575Z,17.49
2023-05-04T15:51:56.267Z,17.25
2023-05-04T15:54:24.199Z,17.39
2023-05-04T15:56:53.859Z,17.36
2023-05-04T15:59:24.045Z,17.14
2023-05-04T16:01:53.643Z,17.27
2023-05-04T16:04:21.044Z,17.27
2023-05-04T16:06:59.300Z,16.95
2023-05-04T16:09:28.385Z,16.98
2023-05-04T16:11:58.971Z,16.88
2023-05-04T16:14:44.538Z,16.84
2023-05-04T16:17:12.001Z,16.77
2023-05-04T16:19:39.569Z,16.56
2023-05-04T16:22:21.677Z,16.50
2023-05-04T16:24:48.384Z,16.34
2023-05-04T16:30:17.147Z,16.06
2023-05-04T16:32:45.135Z,15.90
2023-05-04T17:20:04.034Z,15.67
2023-05-04T17:22:31.115Z,15.80
2023-05-04T17:24:58.712Z,15.89
2023-05-04T17:27:26.506Z,15.81
2023-05-04T17:29:54.070Z,15.84
2023-05-04T17:32:21.192Z,15.78
2023-05-04T17:34:48.245Z,15.60
2023-05-04T17:37:15.008Z,15.32
2023-05-04T17:39:41.970Z,15.49
2023-05-04T17:42:13.710Z,15.40
2023-05-04T17:44:40.393Z,15.49
2023-05-04T17:47:08.108Z,15.38
2023-05-04T17:49:37.708Z,15.38
2023-05-04T17:52:13.045Z,15.22
2023-05-04T17:54:46.344Z,15.29
2023-05-04T17:57:25.417Z,15.38
2023-05-04T17:59:59.641Z,15.28
2023-05-04T18:02:32.263Z,15.21
2023-05-04T18:05:02.856Z,14.95
2023-05-04T18:07:29.674Z,14.99
2023-05-04T18:09:59.555Z,14.84
2023-05-04T18:12:32.570Z,15.09
2023-05-04T18:14:59.807Z,14.92
2023-05-04T18:17:30.024Z,14.53
2023-05-04T18:20:23.087Z,14.78
2023-05-04T18:22:58.584Z,14.80
2023-05-04T18:25:26.037Z,14.87
2023-05-04T18:27:52.849Z,15.00
2023-05-04T18:30:47.982Z,14.94
2023-05-04T18:33:14.767Z,14.64
2023-05-04T18:35:42.027Z,14.43
2023-05-04T18:38:18.396Z,14.49
2023-05-04T18:40:45.296Z,14.48
2023-05-04T18:43:12.351Z,14.40
2023-05-04T18:45:42.058Z,14.35
2023-05-04T18:48:08.941Z,14.61
2023-05-04T18:50:39.859Z,14.13
2023-05-04T18:53:07.046Z,14.37
2023-05-04T18:55:35.177Z,14.61
2023-05-04T19:12:24.491Z,13.53
2023-05-04T19:14:51.387Z,13.61
2023-05-04T19:17:21.734Z,13.79
2023-05-04T19:19:50.507Z,13.71
2023-05-04T19:22:17.367Z,13.76
2023-05-04T19:24:44.514Z,14.05
2023-05-04T19:27:11.362Z,13.71
2023-05-04T19:29:38.283Z,13.67
2023-05-04T19:32:15.808Z,13.66
2023-05-04T19:34:53.066Z,13.72
2023-05-04T19:37:20.148Z,13.86
2023-05-04T19:39:47.648Z,13.59
2023-05-04T19:42:17.677Z,13.43
2023-05-04T19:44:47.317Z,13.59
2023-05-04T19:47:14.263Z,13.67
2023-05-04T19:49:41.132Z,13.42
2023-05-04T19:52:08.105Z,13.54
2023-05-04T19:57:21.608Z,13.59
2023-05-04T19:59:48.471Z,13.47
2023-05-04T20:02:27.468Z,13.60
2023-05-04T20:04:56.171Z,13.42
2023-05-04T20:07:23.226Z,13.36
2023-05-04T20:09:53.008Z,13.43
2023-05-04T20:12:19.990Z,13.62
2023-05-04T20:14:47.960Z,13.43
2023-05-04T20:17:15.778Z,13.28
2023-05-04T20:19:43.287Z,13.71
2023-05-04T20:22:13.173Z,13.25
2023-05-04T20:24:42.045Z,13.25
2023-05-04T20:27:09.714Z,13.06
2023-05-04T20:29:36.624Z,13.10
2023-05-04T20:32:05.547Z,13.08
2023-05-04T20:34:32.934Z,12.98
2023-05-04T20:37:03.294Z,12.84
2023-05-04T20:40:00.818Z,13.10
2023-05-04T20:42:30.126Z,12.96
2023-05-04T20:44:57.200Z,13.35
2023-05-04T20:47:24.362Z,13.49
2023-05-04T20:51:14.554Z,13.68
2023-05-04T20:53:39.002Z,13.26
2023-05-04T20:56:09.456Z,13.50
2023-05-04T20:58:36.357Z,13.63
2023-05-04T21:01:09.258Z,13.34
2023-05-04T21:03:36.631Z,13.37
2023-05-04T21:06:04.172Z,13.81
2023-05-04T21:08:32.020Z,13.67
2023-05-04T21:10:59.483Z,13.99
2023-05-04T21:13:26.730Z,13.62
2023-05-04T21:15:54.152Z,13.82
2023-05-04T21:18:21.878Z,14.12
2023-05-04T21:20:49.102Z,13.85
2023-05-04T21:23:16.513Z,13.82
2023-05-04T21:25:43.823Z,13.93
2023-05-04T21:28:10.750Z,14.00
2023-05-04T21:30:42.133Z,14.02
2023-05-04T21:33:09.371Z,13.80
2023-05-04T21:35:36.278Z,13.57
2023-05-04T21:38:03.162Z,13.79
2023-05-04T21:40:30.345Z,13.85
2023-05-04T21:42:59.434Z,13.88
2023-05-04T21:45:31.633Z,13.99
2023-05-04T21:47:59.120Z,14.00
2023-05-04T21:50:26.887Z,14.07
2023-05-04T21:52:53.902Z,14.07
2023-05-04T21:55:21.075Z,14.03
2023-05-04T21:57:47.978Z,13.80
2023-05-04T22:00:18.531Z,14.00
2023-05-04T22:02:45.326Z,13.96
2023-05-04T22:05:12.478Z,13.87
2023-05-04T22:07:39.734Z,13.84
2023-05-04T22:10:07.697Z,13.93
2023-05-04T22:12:35.077Z,13.84
2023-05-04T22:15:02.721Z,13.80
2023-05-04T22:17:30.000Z,13.61
2023-05-04T22:19:56.952Z,13.54
2023-05-04T22:22:23.896Z,13.54
2023-05-04T22:24:54.019Z,13.41
2023-05-04T22:27:21.701Z,13.54
2023-05-04T22:29:51.596Z,13.61
2023-05-04T22:32:21.105Z,13.70
2023-05-04T22:34:48.157Z,13.61
2023-05-04T22:37:15.762Z,13.68
2023-05-04T22:39:42.993Z,13.20
2023-05-04T22:42:11.320Z,13.09
2023-05-04T22:44:41.083Z,12.85
2023-05-04T22:47:08.463Z,13.03
2023-05-04T22:49:35.854Z,13.16
2023-05-04T22:52:05.600Z,13.11
2023-05-04T22:54:32.874Z,13.18
2023-05-04T22:57:10.619Z,13.30
2023-05-04T22:59:37.986Z,13.13
2023-05-04T23:02:09.757Z,13.14
2023-05-04T23:08:01.100Z,12.98
2023-05-04T23:10:38.566Z,13.16
2023-05-04T23:13:34.185Z,13.16
2023-05-04T23:16:05.380Z,12.81
2023-05-04T23:18:35.337Z,12.69
2023-05-04T23:21:05.665Z,12.79
2023-05-04T23:23:34.446Z,12.93
2023-05-04T23:26:14.706Z,12.78
2023-05-04T23:29:08.743Z,12.79
2023-05-04T23:31:32.925Z,12.94
2023-05-04T23:34:00.019Z,12.99
2023-05-04T23:36:27.793Z,12.66
2023-05-04T23:38:55.125Z,12.67
2023-05-04T23:41:22.101Z,12.57
2023-05-04T23:43:49.094Z,12.54
2023-05-04T23:46:16.101Z,12.41
2023-05-04T23:48:43.083Z,12.22
2023-05-04T23:51:10.295Z,12.37
2023-05-04T23:53:40.837Z,12.40
2023-05-04T23:56:07.955Z,12.46
2023-05-04T23:58:35.631Z,12.29
